createdAt,value
2019-03-30T00:02:10.414Z,18.80
2019-03-30T00:04:59.142Z,18.15
2019-03-30T00:07:33.481Z,17.05
2019-03-30T00:10:09.696Z,16.07
2019-03-30T00:12:54.698Z,15.18
2019-03-30T00:15:35.136Z,16.20
2019-03-30T00:18:15.868Z,18.07
2019-03-30T00:21:08.277Z,18.10
2019-03-30T00:23:45.225Z,16.62
2019-03-30T00:26:25.731Z,17.02
2019-03-30T00:29:06.647Z,17.30
2019-03-30T00:31:54.515Z,18.23
2019-03-30T00:34:48.353Z,19.07
2019-03-30T00:37:11.974Z,18.82
2019-03-30T00:39:48.944Z,19.55
2019-03-30T00:42:35.610Z,18.10
2019-03-30T00:45:21.371Z,19.15
2019-03-30T00:47:55.833Z,18.70
2019-03-30T00:50:33.719Z,19.23
2019-03-30T00:56:20.979Z,19.73
2019-03-30T00:58:58.126Z,19.37
2019-03-30T01:04:35.118Z,19.15
2019-03-30T01:13:12.468Z,20.97
2019-03-30T01:15:53.268Z,22.13
2019-03-30T01:18:30.076Z,21.20
2019-03-30T01:21:05.675Z,22.13
2019-03-30T01:26:42.807Z,21.68
2019-03-30T01:29:21.687Z,21.85
2019-03-30T01:31:55.808Z,21.25
2019-03-30T01:37:24.622Z,21.48
2019-03-30T01:40:22.770Z,21.07
2019-03-30T01:45:48.240Z,22.32
2019-03-30T01:48:40.001Z,20.97
2019-03-30T01:51:19.653Z,20.68
2019-03-30T01:54:00.832Z,19.52
2019-03-30T01:59:35.131Z,24.20
2019-03-30T02:02:16.833Z,20.77
2019-03-30T02:04:56.007Z,19.85
2019-03-30T02:13:45.716Z,19.67
2019-03-30T02:16:34.475Z,20.88
2019-03-30T02:24:53.873Z,23.38
2019-03-30T02:27:40.827Z,19.62
2019-03-30T02:30:18.238Z,24.07
2019-03-30T02:33:03.320Z,21.82
2019-03-30T02:35:50.330Z,20.95
2019-03-30T02:38:38.787Z,21.70
2019-03-30T02:41:16.140Z,20.82
2019-03-30T02:44:01.295Z,24.25
2019-03-30T02:46:52.969Z,24.60
2019-03-30T02:49:40.634Z,24.15
2019-03-30T02:52:18.463Z,23.77
2019-03-30T02:55:06.539Z,23.57
2019-03-30T02:57:43.620Z,20.85
2019-03-30T03:00:41.948Z,22.58
2019-03-30T03:03:17.715Z,22.80
2019-03-30T03:08:48.374Z,25.97
2019-03-30T03:11:43.811Z,27.32
2019-03-30T03:14:28.657Z,25.27
2019-03-30T03:20:00.492Z,28.80
2019-03-30T03:25:35.116Z,25.60
2019-03-30T03:31:17.820Z,31.65
2019-03-30T03:39:52.493Z,26.97
2019-03-30T03:45:35.699Z,24.30
2019-03-30T03:51:24.754Z,20.40
2019-03-30T03:56:56.543Z,18.57
2019-03-30T03:59:48.140Z,18.50
2019-03-30T04:05:29.065Z,20.65
2019-03-30T04:08:05.274Z,18.30
2019-03-30T04:13:40.801Z,18.62
2019-03-30T04:16:36.835Z,19.00
2019-03-30T04:19:26.786Z,17.77
2019-03-30T04:24:59.547Z,17.07
2019-03-30T04:27:40.472Z,18.60
2019-03-30T04:30:34.449Z,17.07
2019-03-30T04:33:15.123Z,18.12
2019-03-30T04:41:48.290Z,18.40
2019-03-30T04:44:27.012Z,17.85
2019-03-30T04:47:00.626Z,17.87
2019-03-30T04:49:45.979Z,18.02
2019-03-30T04:52:18.767Z,18.48
2019-03-30T04:55:32.402Z,17.87
2019-03-30T05:01:17.171Z,21.17
2019-03-30T05:15:46.438Z,18.25
2019-03-30T05:24:22.708Z,19.10
2019-03-30T05:26:59.660Z,18.60
2019-03-30T05:56:18.605Z,20.62
2019-03-30T05:58:57.675Z,19.50
2019-03-30T06:07:40.771Z,22.32
2019-03-30T06:10:22.812Z,22.77
2019-03-30T06:13:06.356Z,22.13
2019-03-30T06:30:34.970Z,37.75
2019-03-30T06:36:19.697Z,23.25
2019-03-30T06:38:57.913Z,22.48
2019-03-30T06:41:35.881Z,23.95
2019-03-30T06:47:11.186Z,21.90
2019-03-30T06:50:03.626Z,24.63
2019-03-30T06:55:46.274Z,23.55
2019-03-30T06:58:41.419Z,23.12
2019-03-30T07:07:07.351Z,23.38
2019-03-30T07:09:51.762Z,24.60
2019-03-30T07:12:30.841Z,23.98
2019-03-30T07:18:04.283Z,25.95
2019-03-30T07:23:46.144Z,24.72
2019-03-30T07:32:24.007Z,22.75
2019-03-30T07:38:03.432Z,23.43
2019-03-30T07:49:09.901Z,22.45
2019-03-30T07:51:53.047Z,23.20
2019-03-30T07:54:42.569Z,22.30
2019-03-30T07:57:30.991Z,22.13
2019-03-30T08:00:07.733Z,23.15
2019-03-30T08:11:49.952Z,25.48
2019-03-30T08:14:34.284Z,23.73
2019-03-30T08:20:15.634Z,23.02
2019-03-30T08:31:49.828Z,23.45
2019-03-30T08:37:08.790Z,21.93
2019-03-30T08:39:52.586Z,22.42
2019-03-30T08:42:36.922Z,21.25
2019-03-30T08:45:20.415Z,22.82
2019-03-30T08:48:00.201Z,24.47
2019-03-30T08:56:41.839Z,21.75
2019-03-30T09:02:24.747Z,23.05
2019-03-30T09:13:58.415Z,23.35
2019-03-30T09:19:40.378Z,23.02
2019-03-30T09:25:17.953Z,24.07
2019-03-30T09:28:16.899Z,23.60
2019-03-30T09:30:52.842Z,24.45
2019-03-30T09:36:39.999Z,24.10
2019-03-30T09:39:32.677Z,23.80
2019-03-30T09:42:19.737Z,23.67
2019-03-30T09:51:03.954Z,23.38
2019-03-30T09:56:47.531Z,24.12
2019-03-30T09:59:27.276Z,23.30
2019-03-30T10:02:03.190Z,23.92
2019-03-30T10:07:43.833Z,24.67
2019-03-30T10:10:20.744Z,27.42
2019-03-30T10:13:10.141Z,27.73
2019-03-30T10:15:50.553Z,29.52
2019-03-30T10:18:49.711Z,28.17
2019-03-30T10:21:28.653Z,43.98
2019-03-30T10:24:17.582Z,32.88
2019-03-30T10:32:51.109Z,45.17
2019-03-30T10:35:32.202Z,38.00
2019-03-30T10:38:04.266Z,34.25
2019-03-30T10:46:42.763Z,43.25
2019-03-30T10:49:26.223Z,35.38
2019-03-30T10:52:14.134Z,29.57
2019-03-30T10:54:57.605Z,36.13
2019-03-30T10:57:30.335Z,36.05
2019-03-30T11:00:13.037Z,33.80
2019-03-30T11:03:04.672Z,33.13
2019-03-30T11:09:00.051Z,30.92
2019-03-30T11:14:31.605Z,30.17
2019-03-30T11:17:11.259Z,31.97
2019-03-30T11:19:53.418Z,33.95
2019-03-30T11:22:44.920Z,32.50
2019-03-30T11:34:15.366Z,39.25
2019-03-30T11:37:00.226Z,32.23
2019-03-30T11:42:38.474Z,32.17
2019-03-30T11:45:31.658Z,32.53
2019-03-30T11:48:37.256Z,38.83
2019-03-30T11:51:06.290Z,34.98
2019-03-30T11:53:44.512Z,39.23
2019-03-30T12:05:34.351Z,37.23
2019-03-30T12:08:08.514Z,35.98
2019-03-30T12:16:40.643Z,37.50
2019-03-30T12:25:34.544Z,39.50
2019-03-30T12:28:17.573Z,41.15
2019-03-30T12:31:06.551Z,41.20
2019-03-30T12:42:35.263Z,55.58
2019-03-30T12:45:30.657Z,84.15
2019-03-30T12:51:10.940Z,86.12
2019-03-30T12:54:04.870Z,42.05
2019-03-30T12:56:50.102Z,48.78
2019-03-30T13:02:39.966Z,42.75
2019-03-30T13:08:16.065Z,40.48
2019-03-30T13:10:53.714Z,39.85
2019-03-30T13:13:58.838Z,40.60
2019-03-30T13:16:53.023Z,39.48
2019-03-30T13:28:42.491Z,38.40
2019-03-30T13:31:31.660Z,34.70
2019-03-30T13:34:20.044Z,39.23
2019-03-30T13:40:31.666Z,37.58
2019-03-30T13:48:59.520Z,36.10
2019-03-30T13:51:49.036Z,35.48
2019-03-30T14:06:56.316Z,38.67
2019-03-30T14:15:57.114Z,38.45
2019-03-30T14:18:43.046Z,38.48
2019-03-30T14:42:24.199Z,36.08
2019-03-30T14:48:11.028Z,36.75
2019-03-30T14:57:03.291Z,36.60
2019-03-30T15:02:51.606Z,35.75
2019-03-30T15:17:23.262Z,38.80
2019-03-30T15:41:14.882Z,35.80
2019-03-30T15:44:06.817Z,36.60
2019-03-30T15:46:57.866Z,37.50
2019-03-30T15:59:10.671Z,38.70
2019-03-30T16:04:27.259Z,39.18
2019-03-30T16:13:18.965Z,46.55
2019-03-30T16:16:12.168Z,49.10
2019-03-30T16:18:59.247Z,48.28
2019-03-30T16:22:01.899Z,45.90
2019-03-30T16:24:55.741Z,42.75
2019-03-30T16:27:32.154Z,42.93
2019-03-30T16:33:03.840Z,47.30
2019-03-30T16:35:39.245Z,45.08
2019-03-30T16:48:15.883Z,44.70
2019-03-30T16:55:43.877Z,45.23
2019-03-30T16:58:28.603Z,45.90
2019-03-30T17:10:09.234Z,47.50
2019-03-30T17:18:42.485Z,44.25
2019-03-30T17:21:24.162Z,44.98
2019-03-30T17:24:12.443Z,45.10
2019-03-30T17:26:54.826Z,49.85
2019-03-30T17:32:29.174Z,49.05
2019-03-30T17:35:20.084Z,45.05
2019-03-30T17:40:56.209Z,43.30
2019-03-30T17:43:33.276Z,42.73
2019-03-30T17:52:17.243Z,43.52
2019-03-30T17:55:12.508Z,42.88
2019-03-30T17:58:13.039Z,40.67
2019-03-30T18:03:30.308Z,40.55
2019-03-30T18:06:07.743Z,50.60
2019-03-30T18:08:49.343Z,43.58
2019-03-30T18:11:26.213Z,42.58
2019-03-30T18:14:12.578Z,42.00
2019-03-30T18:17:04.773Z,40.65
2019-03-30T18:19:40.543Z,41.55
2019-03-30T18:22:22.073Z,41.95
2019-03-30T18:24:57.495Z,41.13
2019-03-30T18:27:33.668Z,43.25
2019-03-30T18:30:08.903Z,40.35
2019-03-30T18:35:43.026Z,41.30
2019-03-30T18:38:26.608Z,40.98
2019-03-30T18:41:08.869Z,41.17
2019-03-30T18:43:49.407Z,39.60
2019-03-30T18:46:32.095Z,45.12
2019-03-30T18:49:17.570Z,43.52
2019-03-30T18:51:52.009Z,40.35
2019-03-30T18:54:29.268Z,42.80
2019-03-30T18:57:04.714Z,41.85
2019-03-30T18:59:40.988Z,42.05
2019-03-30T19:02:18.991Z,44.70
2019-03-30T19:04:51.040Z,46.10
2019-03-30T19:07:28.552Z,39.95
2019-03-30T19:10:02.148Z,39.15
2019-03-30T19:12:36.217Z,40.80
2019-03-30T19:15:10.577Z,40.00
2019-03-30T19:17:45.704Z,39.90
2019-03-30T19:20:22.195Z,41.55
2019-03-30T19:22:56.487Z,39.33
2019-03-30T19:25:30.939Z,38.30
2019-03-30T19:28:05.402Z,39.98
2019-03-30T19:30:47.993Z,43.68
2019-03-30T19:33:22.392Z,44.03
2019-03-30T19:35:56.951Z,40.63
2019-03-30T19:38:31.316Z,39.88
2019-03-30T19:41:07.660Z,36.68
2019-03-30T19:43:41.742Z,38.78
2019-03-30T19:46:15.805Z,40.45
2019-03-30T19:48:54.876Z,41.15
2019-03-30T19:51:29.284Z,43.00
2019-03-30T19:54:08.682Z,43.23
2019-03-30T19:56:48.587Z,40.78
2019-03-30T19:59:23.930Z,40.92
2019-03-30T20:02:02.125Z,41.37
2019-03-30T20:04:37.287Z,40.95
2019-03-30T20:07:16.058Z,40.40
2019-03-30T20:09:49.924Z,37.93
2019-03-30T20:12:29.881Z,39.30
2019-03-30T20:15:07.146Z,40.30
2019-03-30T20:17:40.635Z,40.65
2019-03-30T20:20:14.828Z,42.13
2019-03-30T20:22:52.366Z,41.58
2019-03-30T20:25:26.150Z,42.83
2019-03-30T20:28:00.955Z,43.55
2019-03-30T20:30:35.352Z,41.73
2019-03-30T20:33:09.466Z,40.25
2019-03-30T20:35:44.723Z,39.08
2019-03-30T20:38:19.195Z,41.30
2019-03-30T20:40:53.424Z,42.48
2019-03-30T20:43:28.416Z,38.63
2019-03-30T20:46:02.737Z,41.55
2019-03-30T20:48:37.539Z,41.95
2019-03-30T20:51:13.732Z,40.75
2019-03-30T20:53:50.307Z,38.85
2019-03-30T20:56:24.621Z,43.30
2019-03-30T20:59:02.940Z,41.25
2019-03-30T21:01:41.349Z,44.08
2019-03-30T21:04:16.269Z,40.85
2019-03-30T21:06:50.721Z,42.33
2019-03-30T21:09:25.053Z,43.80
2019-03-30T21:11:59.192Z,41.92
2019-03-30T21:14:33.626Z,41.42
2019-03-30T21:17:11.923Z,42.27
2019-03-30T21:19:48.954Z,42.65
2019-03-30T21:22:23.040Z,41.30
2019-03-30T21:24:58.578Z,40.58
2019-03-30T21:27:32.797Z,41.63
2019-03-30T21:30:08.846Z,42.75
2019-03-30T21:32:43.084Z,41.37
2019-03-30T21:35:18.236Z,40.50
2019-03-30T21:37:53.442Z,42.38
2019-03-30T21:40:27.894Z,43.70
2019-03-30T21:43:02.020Z,43.40
2019-03-30T21:45:37.932Z,44.65
2019-03-30T21:48:17.239Z,44.20
2019-03-30T21:50:51.330Z,44.15
2019-03-30T21:53:26.389Z,43.58
2019-03-30T21:56:02.937Z,42.85
2019-03-30T21:58:37.005Z,44.70
2019-03-30T22:01:17.796Z,43.87
2019-03-30T22:03:52.069Z,44.30
2019-03-30T22:06:29.337Z,43.23
2019-03-30T22:09:07.818Z,42.30
2019-03-30T22:11:50.154Z,42.60
2019-03-30T22:14:25.358Z,42.40
2019-03-30T22:17:08.345Z,40.30
2019-03-30T22:19:39.689Z,42.67
2019-03-30T22:22:14.150Z,43.73
2019-03-30T22:24:54.017Z,40.90
2019-03-30T22:27:30.625Z,41.28
2019-03-30T22:30:24.005Z,41.68
2019-03-30T22:32:52.523Z,42.17
2019-03-30T22:35:29.824Z,41.55
2019-03-30T22:38:14.342Z,42.78
2019-03-30T22:40:49.723Z,42.13
2019-03-30T22:43:26.243Z,42.43
2019-03-30T22:48:55.534Z,100.42
2019-03-30T22:51:43.692Z,116.85
2019-03-30T22:57:09.472Z,49.67
2019-03-30T22:59:48.464Z,49.03
2019-03-30T23:02:24.056Z,44.85
2019-03-30T23:05:00.602Z,44.58
2019-03-30T23:07:35.187Z,43.63
2019-03-30T23:10:10.337Z,41.18
2019-03-30T23:12:44.760Z,49.73
2019-03-30T23:15:19.738Z,46.23
2019-03-30T23:17:58.019Z,44.55
2019-03-30T23:20:49.335Z,43.42
2019-03-30T23:23:25.697Z,43.85
2019-03-30T23:26:04.421Z,43.00
2019-03-30T23:31:44.534Z,46.73
2019-03-30T23:34:18.972Z,44.55
2019-03-30T23:37:01.858Z,45.70
2019-03-30T23:39:49.785Z,43.52
2019-03-30T23:42:30.582Z,44.35
2019-03-30T23:48:01.836Z,45.50
2019-03-30T23:50:35.598Z,45.33
2019-03-30T23:56:06.505Z,45.23
2019-03-30T23:58:44.455Z,44.27
